Time;durP1;ratioP1;P1;durP2;ratioP2;P2;SDS_P1;SDS_P2;PMS_P1;PMS_P2;Temp;Humidity;BMP_temperature;BMP_pressure;BME280_temperature;BME280_humidity;BME280_pressure;Samples;Min_cycle;Max_cycle;Signal;HPM_P1;HPM_P2
2021/11/16 00:01:59;;;;;;;47.15;14.95;;;5.90;99.90;;;;;;5033626;28;20010;-78
2021/11/16 00:04:24;;;;;;;44.17;15.40;;;6.00;99.90;;;;;;5032005;28;20033;-77
2021/11/16 00:06:53;;;;;;;46.53;14.90;;;6.00;99.90;;;;;;5032113;28;20112;-78
2021/11/16 00:09:20;;;;;;;50.15;15.73;;;6.00;99.90;;;;;;5032349;28;20580;-78
2021/11/16 00:11:46;;;;;;;47.67;15.25;;;6.00;99.90;;;;;;5033101;28;20053;-78
2021/11/16 00:14:12;;;;;;;46.35;14.70;;;6.00;99.90;;;;;;5032059;28;20112;-77
2021/11/16 00:16:40;;;;;;;45.13;15.98;;;6.00;99.90;;;;;;5031958;28;20025;-78
2021/11/16 00:19:09;;;;;;;47.40;15.00;;;6.00;99.90;;;;;;5032782;28;20520;-78
2021/11/16 00:21:35;;;;;;;;;;;6.00;99.90;;;;;;5036415;28;20052;-78
2021/11/16 00:24:10;;;;;;;43.42;13.65;;;6.00;99.90;;;;;;5035772;28;19916;-78
2021/11/16 00:26:35;;;;;;;44.13;13.68;;;6.00;99.90;;;;;;5035702;28;20029;-78
2021/11/16 00:29:01;;;;;;;45.35;14.85;;;6.00;99.90;;;;;;5035242;28;20025;-78
2021/11/16 00:31:27;;;;;;;39.33;13.50;;;6.00;99.90;;;;;;5035570;28;20072;-78
2021/11/16 00:33:53;;;;;;;39.90;12.93;;;6.00;99.90;;;;;;5036454;28;20060;-78
2021/11/16 00:36:19;;;;;;;46.75;14.50;;;6.00;99.90;;;;;;5035520;28;20030;-77
2021/11/16 00:38:45;;;;;;;46.42;14.63;;;6.00;99.90;;;;;;5036693;28;20470;-77
2021/11/16 00:41:11;;;;;;;44.97;14.38;;;6.00;99.90;;;;;;5022109;28;20026;-78
2021/11/16 00:43:37;;;;;;;46.80;15.55;;;6.00;99.90;;;;;;5016661;28;20037;-78
2021/11/16 00:46:03;;;;;;;42.08;13.35;;;6.00;99.90;;;;;;5016795;28;20022;-77
2021/11/16 00:48:28;;;;;;;45.88;15.30;;;6.00;99.90;;;;;;5016755;28;20026;-77
2021/11/16 00:50:59;;;;;;;47.45;15.07;;;5.90;99.90;;;;;;5028514;28;20075;-78
2021/11/16 00:53:29;;;;;;;45.42;15.15;;;5.90;99.90;;;;;;5018327;28;20026;-78
2021/11/16 00:55:55;;;;;;;45.22;14.13;;;5.90;99.90;;;;;;5016820;28;20018;-78
2021/11/16 00:58:21;;;;;;;48.10;14.80;;;5.90;99.90;;;;;;5016502;28;20113;-78
2021/11/16 01:00:48;;;;;;;49.53;15.75;;;5.90;99.90;;;;;;5027611;28;20029;-78
2021/11/16 01:03:14;;;;;;;51.38;15.10;;;5.90;99.90;;;;;;5034840;28;20478;-78
2021/11/16 01:05:41;;;;;;;42.20;14.45;;;5.90;99.90;;;;;;5036348;28;20045;-78
2021/11/16 01:08:08;;;;;;;44.17;14.00;;;5.90;99.90;;;;;;5034973;28;20460;-78
2021/11/16 01:10:34;;;;;;;51.75;15.82;;;6.00;99.90;;;;;;5027539;28;20101;-77
2021/11/16 01:13:03;;;;;;;46.70;15.30;;;6.00;99.90;;;;;;5034203;28;20467;-76
2021/11/16 01:15:30;;;;;;;46.22;14.55;;;6.00;99.90;;;;;;5036016;28;20029;-76
2021/11/16 01:17:55;;;;;;;43.70;15.27;;;5.90;99.90;;;;;;5034596;28;20030;-76
2021/11/16 01:20:22;;;;;;;43.17;15.80;;;6.00;99.90;;;;;;5034002;28;20075;-76
2021/11/16 01:22:50;;;;;;;44.67;14.05;;;5.90;99.90;;;;;;5035384;28;20037;-76
2021/11/16 01:25:16;;;;;;;44.17;14.27;;;5.90;99.90;;;;;;5035796;28;20029;-76
2021/11/16 01:27:43;;;;;;;47.90;15.07;;;5.90;99.90;;;;;;5034506;28;20021;-76
2021/11/16 01:30:12;;;;;;;49.35;14.95;;;5.90;99.90;;;;;;5033657;28;20037;-76
2021/11/16 01:35:06;;;;;;;46.10;15.45;;;5.90;99.90;;;;;;5035739;28;20136;-77
2021/11/16 01:37:31;;;;;;;44.30;14.40;;;5.90;99.90;;;;;;5033973;28;20116;-77
2021/11/16 01:39:57;;;;;;;48.08;16.58;;;5.90;99.90;;;;;;5035051;28;20053;-77
2021/11/16 01:42:23;;;;;;;49.05;16.58;;;5.90;99.90;;;;;;5035023;28;20029;-77
2021/11/16 01:44:50;;;;;;;44.83;14.32;;;5.90;99.90;;;;;;5035011;28;20033;-77
2021/11/16 01:47:17;;;;;;;45.60;15.50;;;5.90;99.90;;;;;;5035376;28;20033;-76
2021/11/16 01:49:43;;;;;;;50.35;15.65;;;5.90;99.90;;;;;;5035343;28;20029;-76
2021/11/16 01:52:08;;;;;;;46.80;14.80;;;5.90;99.90;;;;;;5034743;28;20462;-77
2021/11/16 01:54:35;;;;;;;45.00;14.75;;;5.90;99.90;;;;;;5035298;28;20497;-77
2021/11/16 01:57:01;;;;;;;44.28;14.88;;;5.90;99.90;;;;;;5035381;28;20120;-77
2021/11/16 01:59:27;;;;;;;44.58;14.48;;;5.80;99.90;;;;;;5033832;28;20032;-78
2021/11/16 02:01:54;;;;;;;45.80;14.65;;;5.80;99.90;;;;;;5034609;28;20452;-78
2021/11/16 02:04:21;;;;;;;42.60;13.80;;;5.90;99.90;;;;;;5034822;28;20425;-78
2021/11/16 02:06:46;;;;;;;49.33;14.60;;;5.80;99.90;;;;;;5034781;28;20029;-78
2021/11/16 02:09:15;;;;;;;46.20;14.52;;;5.80;99.90;;;;;;5033812;28;20489;-78
2021/11/16 02:11:40;;;;;;;49.80;16.23;;;5.80;99.90;;;;;;5033526;28;20037;-78
2021/11/16 02:14:09;;;;;;;45.85;15.63;;;5.80;99.90;;;;;;5034977;28;20037;-78
2021/11/16 02:16:38;;;;;;;43.38;15.32;;;5.90;99.90;;;;;;5033501;28;20030;-77
2021/11/16 02:19:09;;;;;;;44.92;14.68;;;5.80;99.90;;;;;;5034914;28;20496;-77
2021/11/16 02:21:36;;;;;;;50.17;14.98;;;5.90;99.90;;;;;;5033489;28;20022;-77
2021/11/16 02:24:03;;;;;;;44.05;15.65;;;5.90;99.90;;;;;;5034520;28;20398;-77
2021/11/16 02:26:30;;;;;;;45.65;15.35;;;5.90;99.90;;;;;;5034989;28;20025;-77
2021/11/16 02:28:56;;;;;;;52.20;15.98;;;5.90;99.90;;;;;;5033331;28;20110;-77
2021/11/16 02:31:22;;;;;;;42.50;14.68;;;5.90;99.90;;;;;;5034264;28;20033;-77
2021/11/16 02:33:48;;;;;;;46.97;14.60;;;5.90;99.90;;;;;;5035274;28;20037;-78
2021/11/16 02:36:14;;;;;;;43.03;13.77;;;5.90;99.90;;;;;;5031796;28;20033;-77
2021/11/16 02:38:41;;;;;;;42.50;14.07;;;5.90;99.90;;;;;;5032801;28;20474;-77
2021/11/16 02:41:08;;;;;;;45.38;15.07;;;5.90;99.90;;;;;;5033519;28;20017;-78
2021/11/16 02:43:37;;;;;;;45.40;15.63;;;5.90;99.90;;;;;;5032055;28;20042;-78
2021/11/16 02:46:03;;;;;;;46.75;14.93;;;5.90;99.90;;;;;;5032868;28;20029;-79
2021/11/16 02:48:35;;;;;;;55.60;16.30;;;5.90;99.90;;;;;;5034257;28;20021;-77
2021/11/16 02:51:05;;;;;;;48.70;14.90;;;5.90;99.90;;;;;;5034453;28;20032;-77
2021/11/16 02:53:31;;;;;;;42.80;13.98;;;5.90;99.90;;;;;;5032853;28;20017;-78
2021/11/16 02:55:57;;;;;;;45.45;14.35;;;5.90;99.90;;;;;;5032614;28;20032;-77
2021/11/16 02:58:24;;;;;;;47.20;15.45;;;5.90;99.90;;;;;;5032907;28;20017;-78
2021/11/16 03:00:57;;;;;;;52.03;16.20;;;5.90;99.90;;;;;;5032848;28;20025;-78
2021/11/16 03:03:23;;;;;;;47.35;14.65;;;5.90;99.90;;;;;;5034048;28;20025;-77
2021/11/16 03:05:49;;;;;;;44.75;14.38;;;5.90;99.90;;;;;;5032450;28;20025;-78
2021/11/16 03:08:19;;;;;;;49.72;14.80;;;5.90;99.90;;;;;;5033940;28;20478;-77
2021/11/16 03:10:45;;;;;;;44.60;14.90;;;5.80;99.90;;;;;;5032803;28;20022;-77
2021/11/16 03:13:12;;;;;;;48.95;14.70;;;5.90;99.90;;;;;;5032524;28;20441;-77
2021/11/16 03:15:40;;;;;;;42.97;14.45;;;5.90;99.90;;;;;;5032302;28;20389;-77
2021/11/16 03:18:07;;;;;;;41.60;13.68;;;5.90;99.90;;;;;;5034134;28;20025;-77
2021/11/16 03:20:32;;;;;;;43.83;14.90;;;5.90;99.90;;;;;;5032541;28;20032;-77
2021/11/16 03:23:08;;;;;;;47.95;15.10;;;5.90;99.90;;;;;;5033854;28;20088;-77
2021/11/16 03:25:38;;;;;;;44.97;15.20;;;6.20;99.90;;;;;;5032360;28;20026;-77
2021/11/16 03:28:08;;;;;;;45.63;15.35;;;5.80;99.90;;;;;;5033534;28;20087;-78
2021/11/16 03:30:34;;;;;;;47.85;14.65;;;5.80;99.90;;;;;;5033952;28;20100;-78
2021/11/16 03:33:01;;;;;;;45.03;14.90;;;5.80;99.90;;;;;;5033930;28;20025;-78
2021/11/16 03:35:27;;;;;;;47.53;14.00;;;5.90;99.90;;;;;;5032222;28;20025;-78
2021/11/16 03:37:57;;;;;;;43.22;14.43;;;5.80;99.90;;;;;;5033547;28;20028;-78
2021/11/16 03:40:23;;;;;;;46.72;15.23;;;5.90;99.90;;;;;;5032537;28;20014;-78
2021/11/16 03:42:50;;;;;;;40.53;14.13;;;5.90;99.90;;;;;;5033701;28;20048;-78
2021/11/16 03:45:18;;;;;;;44.05;14.70;;;5.90;99.90;;;;;;5033569;28;20426;-78
2021/11/16 03:47:45;;;;;;;51.58;14.27;;;5.90;99.90;;;;;;5012657;28;20022;-76
2021/11/16 03:50:15;;;;;;;47.63;14.77;;;5.90;99.90;;;;;;5012716;28;20061;-79
2021/11/16 03:52:43;;;;;;;45.92;14.32;;;5.80;99.90;;;;;;5013706;28;20117;-76
2021/11/16 03:55:11;;;;;;;50.38;15.93;;;5.90;99.90;;;;;;5015055;28;20113;-78
2021/11/16 03:57:38;;;;;;;50.77;15.33;;;5.80;99.90;;;;;;5036261;28;20032;-78
2021/11/16 04:00:11;;;;;;;50.53;14.50;;;5.80;99.90;;;;;;5037664;28;20044;-77
2021/11/16 04:02:37;;;;;;;38.22;13.88;;;5.80;99.90;;;;;;5036158;28;20113;-77
2021/11/16 04:05:04;;;;;;;49.90;15.50;;;5.80;99.90;;;;;;5035752;28;20026;-77
2021/11/16 04:07:31;;;;;;;44.95;14.70;;;5.80;99.90;;;;;;5037316;28;20025;-77
2021/11/16 04:09:57;;;;;;;41.20;14.13;;;5.90;99.90;;;;;;5035914;28;20541;-77
2021/11/16 04:12:23;;;;;;;45.60;14.90;;;5.80;99.90;;;;;;5036993;28;20069;-77
2021/11/16 04:14:48;;;;;;;45.78;15.35;;;5.80;99.90;;;;;;5037243;28;20057;-77
2021/11/16 04:17:14;;;;;;;50.30;15.25;;;5.80;99.90;;;;;;5035617;28;20461;-76
2021/11/16 04:19:42;;;;;;;41.80;12.75;;;5.80;99.90;;;;;;5037192;28;20029;-77
2021/11/16 04:22:07;;;;;;;48.67;15.27;;;5.80;99.90;;;;;;5036968;28;20022;-76
2021/11/16 04:24:33;;;;;;;47.42;14.60;;;5.80;99.90;;;;;;5035522;28;20078;-77
2021/11/16 04:26:58;;;;;;;47.67;15.63;;;5.80;99.90;;;;;;5037083;28;20032;-76
2021/11/16 04:29:24;;;;;;;51.15;15.65;;;5.80;99.90;;;;;;5035629;28;20026;-77
2021/11/16 04:31:51;;;;;;;47.78;15.32;;;5.80;99.90;;;;;;5035448;28;20032;-77
2021/11/16 04:34:17;;;;;;;48.40;15.90;;;5.70;99.90;;;;;;5035294;28;20067;-77
2021/11/16 04:36:43;;;;;;;44.60;15.95;;;5.70;99.90;;;;;;5037485;28;20057;-78
2021/11/16 04:39:09;;;;;;;47.53;15.65;;;5.70;99.90;;;;;;5036856;28;20108;-77
2021/11/16 04:41:36;;;;;;;45.50;15.27;;;5.70;99.90;;;;;;5036476;28;20101;-78
2021/11/16 04:44:04;;;;;;;48.13;15.40;;;5.80;99.90;;;;;;5035216;28;20029;-78
2021/11/16 04:46:30;;;;;;;53.00;16.42;;;5.70;99.90;;;;;;5035426;28;20035;-78
2021/11/16 04:59:43;;;;;;;45.42;13.43;;;5.80;99.90;;;;;;5037427;28;20040;-78
2021/11/16 05:04:53;;;;;;;48.00;15.07;;;5.70;99.90;;;;;;5036818;28;20028;-78
2021/11/16 05:07:21;;;;;;;55.08;15.65;;;5.70;99.90;;;;;;5035995;28;20584;-78
2021/11/16 05:09:52;;;;;;;45.03;15.13;;;5.70;99.90;;;;;;5041704;28;20367;-78
2021/11/16 05:12:18;;;;;;;44.03;15.05;;;5.70;99.90;;;;;;5045510;28;20045;-78
2021/11/16 05:14:44;;;;;;;44.60;14.40;;;5.70;99.90;;;;;;5036142;28;20512;-78
2021/11/16 05:17:10;;;;;;;51.55;15.40;;;5.80;99.90;;;;;;5036162;28;20018;-79
2021/11/16 05:19:36;;;;;;;45.17;15.73;;;5.80;99.90;;;;;;5033930;28;20513;-77
2021/11/16 05:22:02;;;;;;;44.60;13.98;;;5.70;99.90;;;;;;5035936;28;20025;-77
2021/11/16 05:24:27;;;;;;;51.55;16.38;;;5.70;99.90;;;;;;5036212;28;20029;-78
2021/11/16 05:26:53;;;;;;;51.13;15.50;;;5.70;99.90;;;;;;5035951;28;20025;-78
2021/11/16 05:29:19;;;;;;;42.78;14.13;;;5.70;99.90;;;;;;5035894;28;20127;-78
2021/11/16 05:31:45;;;;;;;44.38;15.27;;;5.80;99.90;;;;;;5034659;28;20022;-78
2021/11/16 05:34:10;;;;;;;45.90;13.77;;;5.80;99.90;;;;;;5035716;28;20037;-78
2021/11/16 05:36:36;;;;;;;52.40;14.95;;;5.80;99.90;;;;;;5036077;28;20025;-78
2021/11/16 05:39:03;;;;;;;45.75;15.57;;;5.80;99.90;;;;;;5036062;28;20025;-78
2021/11/16 05:41:28;;;;;;;48.92;13.77;;;5.80;99.90;;;;;;5032097;28;20030;-78
2021/11/16 05:43:54;;;;;;;46.30;15.25;;;5.80;99.90;;;;;;5035615;28;20095;-78
2021/11/16 05:46:20;;;;;;;47.95;15.88;;;5.80;99.90;;;;;;5035289;28;20047;-78
2021/11/16 05:48:47;;;;;;;42.13;14.00;;;5.70;99.90;;;;;;5034027;28;20013;-78
2021/11/16 05:51:13;;;;;;;44.70;15.23;;;5.70;99.90;;;;;;5033885;28;20116;-78
2021/11/16 05:53:40;;;;;;;45.20;14.65;;;5.70;99.90;;;;;;5036122;28;20409;-78
2021/11/16 05:56:06;;;;;;;42.15;14.88;;;5.70;99.90;;;;;;5034279;28;20025;-77
2021/11/16 05:58:32;;;;;;;49.38;14.15;;;5.70;99.90;;;;;;5034004;28;20022;-78
2021/11/16 06:00:58;;;;;;;45.05;14.10;;;5.70;99.90;;;;;;5035211;28;20155;-78
2021/11/16 06:03:24;;;;;;;49.55;14.93;;;5.70;99.90;;;;;;5034473;28;20083;-78
2021/11/16 06:05:49;;;;;;;45.20;15.25;;;5.80;99.90;;;;;;5036375;28;20498;-78
2021/11/16 06:08:27;;;;;;;46.92;14.18;;;5.70;99.90;;;;;;5035049;28;20394;-78
2021/11/16 06:10:55;;;;;;;47.80;15.00;;;5.70;99.90;;;;;;5035012;28;20029;-78
2021/11/16 06:13:21;;;;;;;46.13;14.93;;;5.70;99.90;;;;;;5035189;28;20426;-79
2021/11/16 06:15:47;;;;;;;52.53;15.40;;;5.70;99.90;;;;;;5036009;28;20760;-79
2021/11/16 06:18:13;;;;;;;57.13;16.90;;;5.70;99.90;;;;;;5033622;28;20045;-79
2021/11/16 06:20:43;;;;;;;53.35;16.65;;;5.70;99.90;;;;;;5034829;28;20108;-79
2021/11/16 06:23:11;;;;;;;52.80;16.65;;;5.70;99.90;;;;;;5034908;28;20060;-78
2021/11/16 06:25:37;;;;;;;55.20;15.00;;;5.70;99.90;;;;;;5018874;28;20026;-78
2021/11/16 06:28:03;;;;;;;51.40;15.50;;;5.60;99.90;;;;;;5020132;28;20116;-76
2021/11/16 06:30:29;;;;;;;45.88;14.32;;;5.70;99.90;;;;;;5033179;28;20532;-75
2021/11/16 06:32:54;;;;;;;48.00;14.48;;;5.70;99.90;;;;;;5034512;28;20030;-75
2021/11/16 06:35:21;;;;;;;50.53;16.70;;;5.70;99.90;;;;;;5034554;28;20094;-76
2021/11/16 06:37:48;;;;;;;53.67;16.40;;;5.70;99.90;;;;;;5016005;28;20573;-75
2021/11/16 06:40:15;;;;;;;52.75;15.07;;;5.70;99.90;;;;;;5014674;28;20115;-75
2021/11/16 06:42:40;;;;;;;58.10;16.92;;;5.60;99.90;;;;;;5014523;28;20021;-75
2021/11/16 06:45:07;;;;;;;49.78;15.02;;;5.60;99.90;;;;;;5014605;28;20401;-75
2021/11/16 06:47:32;;;;;;;47.90;14.93;;;5.60;99.90;;;;;;5028910;28;20034;-75
2021/11/16 06:49:58;;;;;;;49.30;15.02;;;5.60;99.90;;;;;;5034870;28;20029;-75
2021/11/16 06:52:27;;;;;;;55.20;15.65;;;5.60;99.90;;;;;;5034121;28;20025;-75
2021/11/16 06:54:53;;;;;;;51.80;15.20;;;5.70;99.90;;;;;;5024860;28;20360;-75
2021/11/16 06:57:18;;;;;;;50.10;15.23;;;5.70;99.90;;;;;;5013019;28;20434;-76
2021/11/16 06:59:44;;;;;;;46.65;14.70;;;5.70;99.90;;;;;;5012943;28;20022;-75
2021/11/16 07:02:09;;;;;;;50.42;15.07;;;5.70;99.90;;;;;;5014502;28;20482;-78
2021/11/16 07:04:41;;;;;;;57.67;16.83;;;5.70;99.90;;;;;;5014877;28;20479;-76
2021/11/16 07:07:07;;;;;;;52.92;15.07;;;5.60;99.90;;;;;;5013179;28;20022;-76
2021/11/16 07:09:36;;;;;;;45.85;14.45;;;5.60;99.90;;;;;;5014347;28;20061;-76
2021/11/16 07:12:08;;;;;;;47.42;14.73;;;5.60;99.90;;;;;;5014286;28;20061;-77
2021/11/16 07:14:37;;;;;;;49.58;14.57;;;5.60;99.90;;;;;;5014392;28;20116;-77
2021/11/16 07:17:08;;;;;;;;;;;5.60;99.90;;;;;;5013397;28;20026;-78
2021/11/16 07:19:35;;;;;;;44.85;13.73;;;5.60;99.90;;;;;;5014110;28;19905;-77
2021/11/16 07:22:26;;;;;;;54.42;16.05;;;5.70;99.90;;;;;;5012572;28;20526;-78
2021/11/16 07:24:53;;;;;;;53.15;14.82;;;5.60;99.90;;;;;;5007536;28;20379;-78
2021/11/16 07:27:22;;;;;;;55.78;16.45;;;5.60;99.90;;;;;;5014017;28;20033;-78
2021/11/16 07:29:54;;;;;;;52.78;14.75;;;5.60;99.90;;;;;;5013807;28;20033;-78
2021/11/16 07:32:27;;;;;;;51.95;14.93;;;5.60;99.90;;;;;;5012743;28;20026;-78
2021/11/16 07:34:59;;;;;;;46.60;15.32;;;5.60;99.90;;;;;;5012845;28;20465;-77
2021/11/16 07:37:27;;;;;;;51.72;14.68;;;5.60;99.90;;;;;;5012995;28;20459;-78
2021/11/16 07:39:59;;;;;;;54.05;15.07;;;5.60;99.90;;;;;;5012611;28;20072;-77
2021/11/16 07:42:28;;;;;;;47.20;14.63;;;5.60;99.90;;;;;;5014075;28;20044;-77
2021/11/16 07:45:08;;;;;;;47.38;15.35;;;5.60;99.90;;;;;;5020803;28;20045;-77
2021/11/16 07:47:35;;;;;;;42.35;13.90;;;5.60;99.90;;;;;;5032520;28;20037;-77
2021/11/16 07:50:01;;;;;;;48.88;15.23;;;5.60;99.90;;;;;;5033604;28;20091;-77
2021/11/16 07:52:28;;;;;;;50.42;16.45;;;5.60;99.90;;;;;;5036520;28;20029;-77
2021/11/16 07:54:54;;;;;;;51.13;15.77;;;5.60;99.90;;;;;;5036983;28;20033;-77
2021/11/16 07:57:19;;;;;;;49.25;15.05;;;5.60;99.90;;;;;;5043030;28;20036;-77
2021/11/16 07:59:45;;;;;;;52.20;16.40;;;5.60;99.90;;;;;;5039690;28;20049;-77
2021/11/16 08:02:22;;;;;;;52.60;15.60;;;5.60;99.90;;;;;;5032862;28;20022;-77
2021/11/16 08:05:06;;;;;;;61.47;16.40;;;5.60;99.90;;;;;;5033683;28;20022;-77
2021/11/16 08:07:48;;;;;;;54.22;15.48;;;5.60;99.90;;;;;;5032050;28;20025;-77
2021/11/16 08:10:21;;;;;;;53.63;15.52;;;5.70;99.90;;;;;;5032125;28;20398;-77
2021/11/16 08:12:49;;;;;;;58.75;17.65;;;5.60;99.90;;;;;;5032988;28;20041;-77
2021/11/16 08:15:14;;;;;;;54.20;17.05;;;5.60;99.90;;;;;;5033320;28;20026;-77
2021/11/16 08:17:41;;;;;;;56.95;15.60;;;5.60;99.90;;;;;;5032125;28;20034;-77
2021/11/16 08:20:10;;;;;;;52.50;17.30;;;5.60;99.90;;;;;;5033487;28;20021;-77
2021/11/16 08:22:36;;;;;;;48.72;15.65;;;5.60;99.90;;;;;;5032611;28;20034;-77
2021/11/16 08:25:04;;;;;;;52.25;15.65;;;5.70;99.90;;;;;;5032046;28;20014;-76
2021/11/16 08:27:36;;;;;;;51.47;14.98;;;5.70;99.90;;;;;;5033356;28;20030;-78
2021/11/16 08:30:12;;;;;;;57.63;16.70;;;5.70;99.90;;;;;;5033393;28;20026;-78
2021/11/16 08:32:41;;;;;;;50.80;16.33;;;5.70;99.90;;;;;;5032855;28;20045;-77
2021/11/16 08:35:12;;;;;;;56.40;16.02;;;5.70;99.90;;;;;;5033038;28;20029;-77
2021/11/16 08:37:40;;;;;;;58.17;15.88;;;5.70;99.90;;;;;;5031646;28;20120;-75
2021/11/16 08:40:10;;;;;;;46.58;15.30;;;5.80;99.90;;;;;;5032488;28;20068;-78
2021/11/16 08:42:51;;;;;;;52.13;14.95;;;5.80;99.90;;;;;;5036524;28;20520;-78
2021/11/16 08:45:21;;;;;;;47.33;13.95;;;5.80;99.90;;;;;;5035788;28;20092;-78
2021/11/16 08:47:49;;;;;;;55.53;14.90;;;5.70;99.90;;;;;;5035300;28;20482;-78
2021/11/16 08:50:29;;;;;;;49.40;14.43;;;5.70;99.90;;;;;;5034589;28;20025;-78
2021/11/16 08:53:01;;;;;;;54.70;15.90;;;5.70;99.90;;;;;;5034877;28;20053;-78
2021/11/16 08:55:30;;;;;;;60.33;14.85;;;5.80;99.90;;;;;;5035565;28;20018;-77
2021/11/16 08:57:58;;;;;;;57.42;17.88;;;5.80;99.90;;;;;;5034593;28;20038;-78
2021/11/16 09:00:25;;;;;;;54.15;16.85;;;5.70;99.90;;;;;;5034547;28;20014;-79
2021/11/16 09:03:11;;;;;;;56.00;15.18;;;5.80;99.90;;;;;;5033993;28;20025;-78
2021/11/16 09:05:41;;;;;;;49.70;15.18;;;5.80;99.90;;;;;;5035643;28;20029;-78
2021/11/16 09:08:15;;;;;;;52.30;15.35;;;5.80;99.90;;;;;;5035774;28;20057;-78
2021/11/16 09:10:43;;;;;;;48.75;14.60;;;5.90;99.90;;;;;;5035611;28;20025;-78
2021/11/16 09:13:12;;;;;;;53.33;15.40;;;5.80;99.90;;;;;;5035910;28;20068;-76
2021/11/16 09:15:43;;;;;;;55.05;14.52;;;5.80;99.90;;;;;;5034071;28;20021;-78
2021/11/16 09:18:18;;;;;;;58.65;15.30;;;5.90;99.90;;;;;;5035359;28;20033;-78
2021/11/16 09:20:57;;;;;;;51.47;14.43;;;5.80;99.90;;;;;;5035460;28;20022;-78
2021/11/16 09:23:27;;;;;;;49.97;14.82;;;5.80;99.90;;;;;;5033926;28;20482;-78
2021/11/16 09:28:57;;;;;;;54.58;16.98;;;5.80;99.90;;;;;;5015955;28;20042;-78
2021/11/16 09:31:30;;;;;;;52.15;15.02;;;5.80;99.90;;;;;;5015589;28;20098;-78
2021/11/16 09:34:01;;;;;;;55.90;15.38;;;5.90;99.90;;;;;;5022538;28;20063;-78
2021/11/16 09:36:28;;;;;;;54.45;15.50;;;5.90;99.90;;;;;;5033885;28;20030;-76
2021/11/16 09:38:58;;;;;;;52.88;15.35;;;5.90;99.90;;;;;;5034996;28;20161;-78
2021/11/16 09:41:38;;;;;;;47.60;15.18;;;5.90;99.90;;;;;;5034885;28;20032;-76
2021/11/16 09:44:32;;;;;;;54.55;15.70;;;5.90;99.90;;;;;;5033966;28;20032;-77
2021/11/16 09:47:00;;;;;;;54.38;15.13;;;5.90;99.90;;;;;;5033874;28;20041;-79
2021/11/16 09:49:26;;;;;;;49.45;12.90;;;5.90;99.90;;;;;;5034442;28;20022;-79
2021/11/16 09:52:02;;;;;;;45.42;13.77;;;5.90;99.90;;;;;;5033759;28;20044;-77
2021/11/16 09:54:28;;;;;;;54.15;14.52;;;5.90;99.90;;;;;;5033638;28;20032;-77
2021/11/16 09:57:12;;;;;;;44.85;14.68;;;5.90;99.90;;;;;;5034623;28;20463;-76
2021/11/16 09:59:41;;;;;;;44.90;13.80;;;5.90;99.90;;;;;;5034926;28;20060;-77
2021/11/16 10:02:07;;;;;;;51.33;14.23;;;5.90;99.90;;;;;;5034193;28;20067;-77
2021/11/16 10:04:37;;;;;;;48.70;14.77;;;5.90;99.90;;;;;;5034628;28;20111;-77
2021/11/16 10:07:03;;;;;;;42.50;13.13;;;6.00;99.90;;;;;;5032919;28;20025;-76
2021/11/16 10:09:28;;;;;;;45.45;14.32;;;5.90;99.90;;;;;;5034475;28;20029;-77
2021/11/16 10:11:54;;;;;;;51.28;14.25;;;5.80;99.90;;;;;;5034716;28;20033;-77
2021/11/16 10:14:22;;;;;;;51.95;14.68;;;5.90;99.90;;;;;;5033181;28;20052;-77
2021/11/16 10:16:50;;;;;;;49.20;15.32;;;5.90;99.90;;;;;;5034438;28;20036;-77
2021/11/16 10:19:16;;;;;;;48.95;13.30;;;5.90;99.90;;;;;;5034375;28;20029;-76
2021/11/16 10:21:42;;;;;;;53.63;16.00;;;5.90;99.90;;;;;;5033499;28;20029;-77
2021/11/16 10:24:31;;;;;;;45.40;13.55;;;6.00;99.90;;;;;;5034393;28;20036;-77
2021/11/16 10:27:22;;;;;;;56.53;15.20;;;5.90;99.90;;;;;;5032753;28;20033;-77
2021/11/16 10:30:14;;;;;;;51.47;13.85;;;5.90;99.90;;;;;;5033708;28;20486;-77
2021/11/16 10:32:43;;;;;;;52.83;15.23;;;6.00;99.90;;;;;;5032827;28;20021;-77
2021/11/16 10:35:10;;;;;;;58.95;15.73;;;6.00;99.90;;;;;;5033877;28;20075;-76
2021/11/16 10:37:58;;;;;;;54.60;13.93;;;6.00;99.90;;;;;;5033800;28;20057;-77
2021/11/16 10:40:27;;;;;;;52.28;14.38;;;6.00;99.90;;;;;;5032786;28;20025;-77
2021/11/16 10:42:56;;;;;;;52.65;13.98;;;6.00;99.90;;;;;;5033949;28;20466;-77
2021/11/16 10:45:28;;;;;;;55.83;15.85;;;6.00;99.90;;;;;;5033808;28;20438;-76
2021/11/16 10:48:00;;;;;;;54.35;14.15;;;6.00;99.90;;;;;;5032765;28;20087;-77
2021/11/16 10:50:29;;;;;;;49.20;13.15;;;6.00;99.90;;;;;;5032668;28;20052;-77
2021/11/16 10:53:11;;;;;;;46.70;14.23;;;6.00;99.90;;;;;;5032602;28;20457;-77
2021/11/16 10:55:49;;;;;;;48.92;14.77;;;6.00;99.90;;;;;;5032416;28;20120;-76
2021/11/16 10:58:17;;;;;;;53.08;13.77;;;6.00;99.90;;;;;;5033827;28;20023;-77
2021/11/16 11:00:56;;;;;;;42.13;13.77;;;6.00;99.90;;;;;;5032238;28;20474;-77
2021/11/16 11:03:34;;;;;;;41.40;13.68;;;6.00;99.90;;;;;;5033069;28;20026;-77
2021/11/16 11:06:04;;;;;;;47.40;12.43;;;6.00;99.90;;;;;;5033528;28;20417;-77
2021/11/16 11:08:33;;;;;;;51.65;15.48;;;6.00;99.90;;;;;;5033626;28;20029;-77
2021/11/16 11:11:00;;;;;;;51.17;13.10;;;6.00;99.90;;;;;;5033604;28;20033;-77
2021/11/16 11:13:28;;;;;;;47.90;14.43;;;6.00;99.90;;;;;;5032236;28;20025;-77
2021/11/16 11:15:56;;;;;;;52.83;16.15;;;6.00;99.90;;;;;;5032268;28;20393;-77
2021/11/16 11:18:33;;;;;;;54.15;15.73;;;6.00;99.90;;;;;;5031995;28;20482;-78
2021/11/16 11:21:01;;;;;;;44.30;12.88;;;6.00;99.90;;;;;;5033494;28;20056;-77
2021/11/16 11:23:43;;;;;;;47.28;13.82;;;6.00;99.90;;;;;;5033419;28;20018;-77
2021/11/16 11:26:21;;;;;;;52.85;15.20;;;6.00;99.90;;;;;;5032083;28;20436;-77
2021/11/16 11:29:04;;;;;;;50.25;14.38;;;6.00;99.90;;;;;;5033814;28;20470;-77
2021/11/16 11:31:29;;;;;;;54.80;15.30;;;6.00;99.90;;;;;;5031988;28;20057;-77
2021/11/16 11:33:55;;;;;;;50.20;14.50;;;6.00;99.90;;;;;;5032523;28;20463;-77
2021/11/16 11:36:23;;;;;;;54.97;15.95;;;6.00;99.90;;;;;;5031937;28;20021;-78
2021/11/16 11:38:50;;;;;;;51.15;13.60;;;6.00;99.90;;;;;;5033537;28;20028;-77
2021/11/16 11:41:16;;;;;;;52.65;13.85;;;6.00;99.90;;;;;;5031970;28;20028;-78
2021/11/16 11:43:42;;;;;;;59.80;14.07;;;5.90;99.90;;;;;;5031951;28;20021;-76
2021/11/16 11:46:07;;;;;;;45.70;13.85;;;6.00;99.90;;;;;;5032956;28;20091;-77
2021/11/16 11:48:33;;;;;;;44.75;13.02;;;6.00;99.90;;;;;;5033124;28;20389;-77
2021/11/16 11:51:15;;;;;;;49.97;13.65;;;6.00;99.90;;;;;;5031936;28;20024;-77
2021/11/16 11:53:41;;;;;;;54.10;14.70;;;6.00;99.90;;;;;;5033133;28;20029;-77
2021/11/16 11:56:13;;;;;;;45.47;14.13;;;6.00;99.90;;;;;;5033354;28;20029;-78
2021/11/16 11:58:42;;;;;;;51.90;13.35;;;6.00;99.90;;;;;;5031604;28;20450;-77
2021/11/16 12:01:12;;;;;;;51.80;13.45;;;6.00;99.90;;;;;;5032880;28;20760;-77
2021/11/16 12:03:40;;;;;;;46.50;13.45;;;6.10;99.90;;;;;;5032898;28;20029;-77
2021/11/16 12:06:06;;;;;;;46.47;13.27;;;6.00;99.90;;;;;;5032755;28;20029;-77
2021/11/16 12:08:33;;;;;;;54.67;13.80;;;6.00;99.90;;;;;;5033256;28;20057;-76
2021/11/16 12:10:59;;;;;;;54.80;14.60;;;6.00;99.90;;;;;;5032857;28;20549;-77
2021/11/16 12:13:27;;;;;;;44.72;13.80;;;6.00;99.90;;;;;;5031615;28;20108;-77
2021/11/16 12:16:08;;;;;;;44.13;13.82;;;6.00;99.90;;;;;;5033732;28;20391;-77
2021/11/16 12:18:38;;;;;;;51.00;14.07;;;6.00;99.90;;;;;;5035190;28;20051;-76
2021/11/16 12:21:04;;;;;;;43.08;12.57;;;6.00;99.90;;;;;;5036633;28;20075;-75
2021/11/16 12:23:49;;;;;;;50.67;13.60;;;6.00;99.90;;;;;;5036427;28;20067;-76
2021/11/16 12:26:16;;;;;;;57.42;14.02;;;6.00;99.90;;;;;;5035415;28;20091;-77
2021/11/16 12:28:43;;;;;;;50.15;15.45;;;6.00;99.90;;;;;;5036398;28;20036;-77
2021/11/16 12:31:22;;;;;;;56.72;16.17;;;6.00;99.90;;;;;;5036139;28;20041;-77
2021/11/16 12:33:49;;;;;;;56.17;16.02;;;6.00;99.90;;;;;;5034950;28;20082;-76
2021/11/16 12:36:31;;;;;;;51.80;15.48;;;6.00;99.90;;;;;;5036193;28;20029;-77
2021/11/16 12:39:10;;;;;;;48.97;13.85;;;6.00;99.90;;;;;;5036602;28;20025;-77
2021/11/16 12:41:40;;;;;;;;;;;5.90;99.90;;;;;;5035210;28;20052;-79
2021/11/16 12:44:09;;;;;;;55.42;13.88;;;5.90;99.90;;;;;;5036207;28;19969;-78
2021/11/16 12:46:37;;;;;;;52.75;14.70;;;5.90;99.90;;;;;;5034576;28;20108;-76
2021/11/16 12:49:12;;;;;;;58.72;15.68;;;5.90;99.90;;;;;;5034869;28;20017;-77
2021/11/16 12:51:53;;;;;;;50.03;13.77;;;5.90;99.90;;;;;;5036076;28;20030;-77
2021/11/16 12:54:20;;;;;;;58.95;16.58;;;5.80;99.90;;;;;;5034671;28;20018;-77
2021/11/16 12:56:46;;;;;;;55.75;14.15;;;5.80;99.90;;;;;;5036056;28;20036;-77
2021/11/16 12:59:16;;;;;;;52.92;15.93;;;5.80;99.90;;;;;;5034543;28;20021;-78
2021/11/16 13:01:52;;;;;;;46.88;13.25;;;5.80;99.90;;;;;;5035538;28;20088;-77
2021/11/16 13:04:37;;;;;;;53.40;15.20;;;5.80;99.90;;;;;;5034641;28;20025;-77
2021/11/16 13:07:19;;;;;;;52.17;15.45;;;5.80;99.90;;;;;;5035903;28;20075;-77